Time;durP1;ratioP1;P1;durP2;ratioP2;P2;SDS_P1;SDS_P2;PMS_P1;PMS_P2;Temp;Humidity;BMP_temperature;BMP_pressure;BME280_temperature;BME280_humidity;BME280_pressure;Samples;Min_cycle;Max_cycle;Signal;HPM_P1;HPM_P2
2023/05/10 00:00:12;;;;;;;3.30;3.00;;;15.30;99.90;;;;;;5026902;28;20202;-86
2023/05/10 00:02:38;;;;;;;3.13;2.83;;;15.30;99.90;;;;;;5033273;28;20175;-86
2023/05/10 00:05:04;;;;;;;3.30;3.00;;;15.30;99.90;;;;;;5033388;28;20170;-85
2023/05/10 00:07:30;;;;;;;3.07;2.73;;;15.30;99.90;;;;;;5033391;28;20190;-86
2023/05/10 00:09:56;;;;;;;2.97;2.50;;;15.30;99.90;;;;;;5031626;28;20284;-86
2023/05/10 00:12:22;;;;;;;2.73;2.53;;;15.40;99.90;;;;;;5031976;28;20232;-86
2023/05/10 00:14:47;;;;;;;2.73;2.53;;;15.40;99.90;;;;;;5032179;28;20170;-86
2023/05/10 00:17:14;;;;;;;2.90;2.20;;;15.50;99.90;;;;;;5033211;28;20194;-85
2023/05/10 00:19:39;;;;;;;2.50;2.30;;;15.50;99.90;;;;;;5023426;28;20193;-88
2023/05/10 00:22:05;;;;;;;2.63;2.27;;;15.50;99.90;;;;;;5021482;28;20186;-86
2023/05/10 00:24:30;;;;;;;2.00;1.90;;;15.40;99.90;;;;;;5032855;28;20265;-85
2023/05/10 00:26:56;;;;;;;2.23;2.03;;;15.40;99.90;;;;;;5031646;28;20198;-86
2023/05/10 00:29:21;;;;;;;2.00;1.90;;;15.40;99.90;;;;;;5031875;28;20178;-85
2023/05/10 00:31:47;;;;;;;3.00;1.87;;;15.50;99.90;;;;;;5032562;28;20278;-86
2023/05/10 00:34:12;;;;;;;1.80;1.70;;;15.40;99.90;;;;;;5031651;28;20182;-85
2023/05/10 00:36:38;;;;;;;2.80;1.80;;;15.40;99.90;;;;;;5031678;28;20214;-85
2023/05/10 00:39:04;;;;;;;1.83;1.73;;;15.30;99.90;;;;;;5032737;28;20171;-86
2023/05/10 00:41:33;;;;;;;1.87;1.77;;;15.40;99.90;;;;;;5031827;28;20201;-85
2023/05/10 00:43:58;;;;;;;2.17;1.97;;;15.20;99.90;;;;;;5031580;28;20175;-86
2023/05/10 00:46:25;;;;;;;2.77;1.90;;;15.10;99.90;;;;;;5031644;28;20182;-86
2023/05/10 00:48:51;;;;;;;2.60;1.90;;;15.10;99.90;;;;;;5031554;28;20209;-86
2023/05/10 00:51:16;;;;;;;3.47;2.40;;;15.00;99.90;;;;;;5031030;28;20252;-84
2023/05/10 00:53:45;;;;;;;2.30;2.10;;;14.90;99.90;;;;;;5032675;28;20186;-85
2023/05/10 00:56:10;;;;;;;2.57;2.20;;;14.80;99.90;;;;;;5031320;28;20182;-85
2023/05/10 00:58:36;;;;;;;4.80;3.10;;;14.80;99.90;;;;;;5031434;28;20194;-85
2023/05/10 01:01:02;;;;;;;3.53;2.93;;;14.80;99.90;;;;;;5032175;28;20285;-85
2023/05/10 01:03:28;;;;;;;3.70;3.00;;;14.70;99.90;;;;;;5031382;28;20248;-85
2023/05/10 01:05:55;;;;;;;4.30;3.00;;;14.70;99.90;;;;;;5031378;28;20185;-85
2023/05/10 01:08:21;;;;;;;3.27;2.77;;;14.70;99.90;;;;;;5031185;28;20225;-85
2023/05/10 01:10:49;;;;;;;3.77;3.43;;;14.70;99.90;;;;;;5030614;28;20225;-85
2023/05/10 01:13:25;;;;;;;4.70;3.03;;;14.70;99.90;;;;;;5032552;28;20218;-85
2023/05/10 01:15:51;;;;;;;3.30;2.93;;;14.80;99.90;;;;;;5031073;28;20228;-85
2023/05/10 01:18:21;;;;;;;4.13;2.80;;;14.90;99.90;;;;;;5030974;28;20194;-85
2023/05/10 01:20:53;;;;;;;3.10;2.80;;;14.70;99.90;;;;;;5030547;28;20269;-85
2023/05/10 01:23:57;;;;;;;3.57;2.30;;;14.80;99.90;;;;;;5032483;28;20641;-85
2023/05/10 01:26:44;;;;;;;2.97;2.60;;;14.70;99.90;;;;;;5032744;28;20633;-85
2023/05/10 01:29:33;;;;;;;2.60;2.40;;;14.70;99.90;;;;;;5024320;28;20232;-85
2023/05/10 01:32:21;;;;;;;2.70;2.50;;;14.70;99.90;;;;;;5025374;28;20208;-86
2023/05/10 01:35:05;;;;;;;3.17;2.70;;;14.70;99.90;;;;;;5030981;28;20178;-86
2023/05/10 01:37:44;;;;;;;2.70;2.50;;;14.70;99.90;;;;;;5030757;28;20198;-85
2023/05/10 01:40:20;;;;;;;3.20;2.73;;;14.70;99.90;;;;;;5031661;28;20178;-86
2023/05/10 01:42:53;;;;;;;2.90;2.60;;;14.70;99.90;;;;;;5030776;28;20209;-86
2023/05/10 01:45:30;;;;;;;2.60;2.40;;;14.70;99.90;;;;;;5021439;28;20193;-86
2023/05/10 01:48:09;;;;;;;3.63;2.77;;;14.70;99.90;;;;;;5031603;28;20622;-86
2023/05/10 01:50:38;;;;;;;2.90;2.70;;;14.60;99.90;;;;;;5021958;28;20174;-86
2023/05/10 01:53:07;;;;;;;2.70;2.50;;;14.60;99.90;;;;;;5026914;28;20206;-86
2023/05/10 01:55:39;;;;;;;3.10;2.80;;;14.60;99.90;;;;;;5026253;28;20174;-86
2023/05/10 01:58:09;;;;;;;3.40;2.37;;;14.50;99.90;;;;;;5031590;28;20201;-86
2023/05/10 02:00:36;;;;;;;3.60;2.50;;;14.60;99.90;;;;;;5017606;28;20170;-86
2023/05/10 02:03:06;;;;;;;2.70;2.50;;;14.60;99.90;;;;;;5036020;28;20258;-86
2023/05/10 02:05:33;;;;;;;2.90;2.50;;;14.60;99.90;;;;;;5034462;28;20174;-85
2023/05/10 02:08:01;;;;;;;3.53;2.40;;;14.70;99.90;;;;;;5035871;28;20281;-86
2023/05/10 02:10:28;;;;;;;2.43;2.17;;;14.70;99.90;;;;;;5035301;28;20174;-86
2023/05/10 02:12:58;;;;;;;1.90;1.80;;;14.70;99.90;;;;;;5034455;28;20293;-86
2023/05/10 02:15:25;;;;;;;1.83;1.73;;;14.70;99.90;;;;;;5034254;28;20185;-86
2023/05/10 02:17:54;;;;;;;1.80;1.30;;;14.50;99.90;;;;;;5033024;28;20198;-86
2023/05/10 02:20:21;;;;;;;0.90;0.90;;;14.50;99.90;;;;;;5034795;28;20265;-85
2023/05/10 02:22:49;;;;;;;0.70;0.70;;;14.40;99.90;;;;;;5034397;28;20179;-85
2023/05/10 02:25:16;;;;;;;1.23;1.03;;;14.30;99.90;;;;;;5035470;28;20178;-85
2023/05/10 02:27:44;;;;;;;1.13;1.00;;;14.20;99.90;;;;;;5034051;28;20202;-85
2023/05/10 02:30:10;;;;;;;0.90;0.90;;;14.10;99.90;;;;;;5033496;28;20178;-83
2023/05/10 02:32:37;;;;;;;0.83;0.80;;;14.10;99.90;;;;;;5033938;28;20206;-85
2023/05/10 02:35:04;;;;;;;1.03;0.73;;;14.10;99.90;;;;;;5035347;28;20178;-85
2023/05/10 02:37:30;;;;;;;0.60;0.60;;;14.00;99.90;;;;;;5033899;28;20631;-85
2023/05/10 02:39:57;;;;;;;0.50;0.50;;;13.90;99.90;;;;;;5025047;28;20763;-85
2023/05/10 02:42:26;;;;;;;1.63;0.70;;;13.80;99.90;;;;;;5034626;28;20546;-85
2023/05/10 02:44:55;;;;;;;0.67;0.67;;;13.80;99.90;;;;;;5034984;28;20537;-85
2023/05/10 02:47:21;;;;;;;0.70;0.70;;;13.70;99.90;;;;;;5029383;28;20226;-85
2023/05/10 02:49:47;;;;;;;0.67;0.67;;;13.80;99.90;;;;;;5034491;28;20308;-84
2023/05/10 02:52:24;;;;;;;0.60;0.60;;;13.80;99.90;;;;;;5034965;28;20202;-84
2023/05/10 02:54:54;;;;;;;0.60;0.60;;;13.80;99.90;;;;;;5017228;28;20531;-85
2023/05/10 02:57:26;;;;;;;1.10;0.50;;;13.80;99.90;;;;;;5034877;28;20285;-85
2023/05/10 02:59:51;;;;;;;1.57;0.57;;;13.80;99.90;;;;;;5034472;28;20178;-84
2023/05/10 03:02:17;;;;;;;0.60;0.40;;;13.70;99.90;;;;;;5017168;28;20293;-85
2023/05/10 03:04:43;;;;;;;1.20;0.53;;;13.60;99.90;;;;;;5016511;28;20178;-85
2023/05/10 03:07:08;;;;;;;0.60;0.43;;;13.60;99.90;;;;;;5016753;28;20196;-85
2023/05/10 03:09:34;;;;;;;0.53;0.53;;;13.60;99.90;;;;;;5016840;28;20236;-85
2023/05/10 03:12:19;;;;;;;0.43;0.43;;;13.60;99.90;;;;;;5016972;28;20203;-85
2023/05/10 03:15:00;;;;;;;0.50;0.50;;;13.50;99.90;;;;;;5034493;28;20177;-85
2023/05/10 03:17:30;;;;;;;0.50;0.50;;;13.50;99.90;;;;;;5034217;28;20233;-85
2023/05/10 03:20:07;;;;;;;0.70;0.50;;;13.50;99.90;;;;;;5016235;28;20182;-85
2023/05/10 03:22:40;;;;;;;0.60;0.50;;;13.50;99.90;;;;;;5034430;28;20194;-85
2023/05/10 03:25:08;;;;;;;1.30;0.60;;;13.50;99.90;;;;;;5016603;28;20572;-85
2023/05/10 03:27:35;;;;;;;0.47;0.47;;;13.40;99.90;;;;;;5016458;28;20372;-85
2023/05/10 03:30:02;;;;;;;0.50;0.50;;;13.40;99.90;;;;;;5015915;28;20178;-85
2023/05/10 03:32:31;;;;;;;0.67;0.20;;;13.50;99.90;;;;;;5016189;28;20213;-85
2023/05/10 03:34:57;;;;;;;0.50;0.50;;;13.40;99.90;;;;;;5016249;28;20182;-85
2023/05/10 03:37:22;;;;;;;0.50;0.50;;;13.50;99.90;;;;;;5034132;28;20195;-85
2023/05/10 03:39:48;;;;;;;0.37;0.37;;;13.40;99.90;;;;;;5015874;28;20549;-85
2023/05/10 03:42:14;;;;;;;0.90;0.60;;;13.40;99.90;;;;;;5033723;28;20178;-86
2023/05/10 03:44:39;;;;;;;1.03;0.70;;;13.40;99.90;;;;;;5033577;28;20265;-85
2023/05/10 03:47:05;;;;;;;0.67;0.50;;;13.40;99.90;;;;;;5033542;28;20220;-86
2023/05/10 03:49:32;;;;;;;0.60;0.57;;;13.40;99.90;;;;;;5033867;28;20174;-85
2023/05/10 03:51:57;;;;;;;0.40;0.40;;;13.40;99.90;;;;;;5015371;28;20216;-86
2023/05/10 03:54:23;;;;;;;0.47;0.40;;;13.40;99.90;;;;;;5015979;28;20170;-85
2023/05/10 03:56:48;;;;;;;0.50;0.50;;;13.40;99.90;;;;;;5015779;28;20194;-85
2023/05/10 03:59:14;;;;;;;0.50;0.50;;;13.40;99.90;;;;;;5033352;28;20185;-86
2023/05/10 04:01:39;;;;;;;0.60;0.60;;;13.40;99.90;;;;;;5033308;28;20215;-85
2023/05/10 04:04:05;;;;;;;0.83;0.43;;;13.40;99.90;;;;;;5033733;28;20209;-86
2023/05/10 04:06:31;;;;;;;3.60;0.60;;;13.40;99.90;;;;;;5033495;28;20178;-86
2023/05/10 04:08:59;;;;;;;0.97;0.40;;;13.40;99.90;;;;;;5033388;28;20186;-86
2023/05/10 04:11:25;;;;;;;0.47;0.47;;;13.40;99.90;;;;;;5014933;28;20687;-86
2023/05/10 04:13:51;;;;;;;0.70;0.30;;;13.40;99.90;;;;;;5015544;28;20179;-86
2023/05/10 04:16:16;;;;;;;0.73;0.50;;;13.30;99.90;;;;;;5032512;28;20714;-85
2023/05/10 04:18:42;;;;;;;1.07;0.50;;;13.20;99.90;;;;;;5015723;28;20230;-86
2023/05/10 04:21:14;;;;;;;0.30;0.30;;;13.20;99.90;;;;;;5014966;28;20178;-86
2023/05/10 04:23:40;;;;;;;0.30;0.30;;;13.20;99.90;;;;;;5033082;28;20649;-86
2023/05/10 04:26:06;;;;;;;0.70;0.40;;;13.10;99.90;;;;;;5015347;28;20390;-86
2023/05/10 04:28:32;;;;;;;0.77;0.50;;;13.10;99.90;;;;;;5015062;28;20190;-85
2023/05/10 04:31:04;;;;;;;0.70;0.70;;;13.10;99.90;;;;;;5032571;28;20204;-85
2023/05/10 04:33:30;;;;;;;1.13;0.70;;;13.00;99.90;;;;;;5033056;28;20676;-85
2023/05/10 04:35:55;;;;;;;0.60;0.60;;;13.10;99.90;;;;;;5015391;28;20174;-84
2023/05/10 04:38:21;;;;;;;0.60;0.60;;;13.00;99.90;;;;;;5015336;28;20257;-84
2023/05/10 04:40:46;;;;;;;0.70;0.70;;;13.00;99.90;;;;;;5014786;28;20221;-84
2023/05/10 04:43:12;;;;;;;1.00;0.80;;;13.10;99.90;;;;;;5032952;28;20181;-85
2023/05/10 04:45:37;;;;;;;0.77;0.70;;;13.20;99.90;;;;;;5015237;28;20178;-84
2023/05/10 04:48:03;;;;;;;1.03;0.90;;;13.20;99.90;;;;;;5015159;28;20300;-85
2023/05/10 04:50:29;;;;;;;1.10;0.87;;;13.30;99.90;;;;;;5014772;28;20209;-82
2023/05/10 04:52:54;;;;;;;1.33;1.23;;;13.30;99.90;;;;;;5015238;28;20580;-85
2023/05/10 04:55:20;;;;;;;1.73;1.17;;;13.30;99.90;;;;;;5032985;28;20174;-84
2023/05/10 04:57:46;;;;;;;1.10;1.00;;;13.30;99.90;;;;;;5032558;28;20673;-84
2023/05/10 05:00:12;;;;;;;1.10;0.90;;;13.30;99.90;;;;;;5014753;28;20257;-85
2023/05/10 05:02:38;;;;;;;0.73;0.73;;;13.30;99.90;;;;;;5032770;28;20183;-84
2023/05/10 05:05:03;;;;;;;0.50;0.50;;;13.40;99.90;;;;;;5032841;28;20170;-84
2023/05/10 05:07:30;;;;;;;1.87;0.83;;;13.40;99.90;;;;;;5032328;28;20566;-83
2023/05/10 05:09:56;;;;;;;2.30;0.87;;;13.30;99.90;;;;;;5032038;28;20169;-84
2023/05/10 05:12:21;;;;;;;0.80;0.80;;;13.30;99.90;;;;;;5014839;28;20195;-83
2023/05/10 05:14:47;;;;;;;0.80;0.80;;;13.40;99.90;;;;;;5015538;28;20268;-81
2023/05/10 05:17:12;;;;;;;1.77;0.90;;;13.40;99.90;;;;;;5032641;28;20190;-84
2023/05/10 05:19:38;;;;;;;1.10;0.70;;;13.40;99.90;;;;;;5014290;28;20171;-84
2023/05/10 05:22:06;;;;;;;0.80;0.80;;;13.30;99.90;;;;;;5016045;28;20280;-85
2023/05/10 05:24:36;;;;;;;1.63;0.90;;;13.40;99.90;;;;;;5031818;28;20261;-84
2023/05/10 05:27:01;;;;;;;1.27;0.80;;;13.40;99.90;;;;;;5031956;28;20285;-84
2023/05/10 05:29:27;;;;;;;1.10;1.00;;;13.40;99.90;;;;;;5032208;28;20273;-85
2023/05/10 05:31:52;;;;;;;1.87;0.80;;;13.40;99.90;;;;;;5031838;28;20209;-85
2023/05/10 05:34:20;;;;;;;0.90;0.90;;;13.40;99.90;;;;;;5029781;28;20182;-85
2023/05/10 05:36:45;;;;;;;1.37;0.90;;;13.50;99.90;;;;;;5023459;28;20198;-85
2023/05/10 05:39:11;;;;;;;1.00;1.00;;;13.60;99.90;;;;;;5031828;28;20231;-86
2023/05/10 05:41:37;;;;;;;1.40;1.20;;;13.50;99.90;;;;;;5030218;28;20252;-86
2023/05/10 05:44:02;;;;;;;1.10;1.00;;;13.60;99.90;;;;;;5032296;28;20198;-85
2023/05/10 05:49:00;;;;;;;1.50;1.10;;;13.80;99.90;;;;;;5090668;22;20230;-81
2023/05/10 05:51:26;;;;;;;1.30;1.00;;;13.80;99.90;;;;;;5037399;28;20200;-81
2023/05/10 05:53:51;;;;;;;1.03;0.93;;;14.00;99.90;;;;;;5039053;28;20257;-79
2023/05/10 05:56:23;;;;;;;0.87;0.87;;;13.90;99.90;;;;;;5040780;28;20169;-82
2023/05/10 05:58:52;;;;;;;1.17;0.97;;;13.90;99.90;;;;;;5036614;28;20186;-85
2023/05/10 06:01:17;;;;;;;1.30;1.17;;;13.90;99.90;;;;;;5034764;28;20174;-81
2023/05/10 06:03:43;;;;;;;1.20;1.10;;;14.00;99.90;;;;;;5038289;28;20213;-79
2023/05/10 06:06:08;;;;;;;1.07;1.07;;;14.10;99.90;;;;;;5040511;28;20174;-79
2023/05/10 06:08:34;;;;;;;1.20;1.10;;;14.10;99.90;;;;;;5031428;28;20207;-80
2023/05/10 06:11:04;;;;;;;1.33;1.10;;;14.10;99.90;;;;;;5025027;28;20205;-81
2023/05/10 06:13:31;;;;;;;1.27;1.17;;;14.00;99.90;;;;;;5037667;28;20289;-80
2023/05/10 06:15:58;;;;;;;1.70;1.30;;;14.00;99.90;;;;;;5037349;28;20178;-80
2023/05/10 06:18:24;;;;;;;1.30;1.20;;;14.10;99.90;;;;;;5040294;28;20248;-79
2023/05/10 06:20:50;;;;;;;1.47;1.30;;;14.10;99.90;;;;;;5035392;28;20225;-78
2023/05/10 06:23:15;;;;;;;2.00;1.50;;;14.20;99.90;;;;;;5038137;28;20174;-79
2023/05/10 06:25:41;;;;;;;1.70;1.40;;;14.20;99.90;;;;;;5038863;28;20185;-79
2023/05/10 06:28:06;;;;;;;1.53;1.40;;;14.20;99.90;;;;;;5035756;28;20212;-79
2023/05/10 06:30:32;;;;;;;3.47;1.40;;;14.30;99.90;;;;;;5036153;28;20175;-79
2023/05/10 06:32:58;;;;;;;1.30;1.20;;;14.20;99.90;;;;;;5035671;28;20198;-79
2023/05/10 06:35:23;;;;;;;2.17;1.10;;;14.20;99.90;;;;;;5035775;28;20175;-79
2023/05/10 06:37:49;;;;;;;1.23;1.13;;;14.30;99.90;;;;;;5033498;28;20191;-79
2023/05/10 06:40:15;;;;;;;1.40;1.30;;;14.30;99.90;;;;;;5036592;28;20171;-80
2023/05/10 06:42:41;;;;;;;1.30;1.20;;;14.40;99.90;;;;;;5038583;28;20185;-81
2023/05/10 06:45:08;;;;;;;1.43;1.33;;;14.40;99.90;;;;;;5039130;28;20174;-81
2023/05/10 06:47:33;;;;;;;1.50;1.40;;;14.40;99.90;;;;;;5038483;28;20210;-83
2023/05/10 06:49:59;;;;;;;1.70;1.60;;;14.40;99.90;;;;;;5043534;28;20584;-83
2023/05/10 06:52:25;;;;;;;2.30;1.20;;;14.40;99.90;;;;;;5046232;28;20221;-85
2023/05/10 06:54:50;;;;;;;1.40;1.30;;;14.40;99.90;;;;;;5043331;28;20174;-83
2023/05/10 06:57:17;;;;;;;1.40;1.30;;;14.50;99.90;;;;;;5044283;28;20202;-83
2023/05/10 06:59:43;;;;;;;1.20;1.10;;;14.50;99.90;;;;;;5041031;28;20202;-84
2023/05/10 07:02:08;;;;;;;1.40;1.30;;;14.30;99.90;;;;;;5042360;28;20174;-83
2023/05/10 07:04:34;;;;;;;1.43;1.20;;;14.20;99.90;;;;;;5043686;28;20181;-84
2023/05/10 07:07:00;;;;;;;1.50;1.30;;;14.20;99.90;;;;;;5042231;28;20198;-83
2023/05/10 07:09:25;;;;;;;1.50;1.40;;;14.20;99.90;;;;;;5044494;28;20171;-83
2023/05/10 07:11:51;;;;;;;2.43;1.70;;;14.10;99.90;;;;;;5040818;28;20194;-83
2023/05/10 07:14:16;;;;;;;1.37;1.27;;;14.20;99.90;;;;;;5044153;28;20230;-83
2023/05/10 07:16:42;;;;;;;1.93;1.50;;;14.20;99.90;;;;;;5043161;28;20166;-83
2023/05/10 07:19:07;;;;;;;2.50;2.00;;;14.30;99.90;;;;;;5041974;28;20179;-85
2023/05/10 07:21:33;;;;;;;1.43;1.33;;;14.40;99.90;;;;;;5041214;28;20182;-84
2023/05/10 07:24:00;;;;;;;1.80;1.70;;;14.50;99.90;;;;;;5040117;28;20174;-84
2023/05/10 07:26:25;;;;;;;1.60;1.43;;;14.40;99.90;;;;;;5040348;28;20174;-84
2023/05/10 07:28:51;;;;;;;1.80;1.70;;;14.50;99.90;;;;;;5042060;28;20205;-84
2023/05/10 07:31:16;;;;;;;2.10;1.50;;;14.50;99.90;;;;;;5039703;28;20175;-84
2023/05/10 07:33:42;;;;;;;1.73;1.60;;;14.40;99.90;;;;;;5043235;28;20167;-84
2023/05/10 07:36:07;;;;;;;3.37;1.70;;;14.30;99.90;;;;;;5041826;28;20277;-84
2023/05/10 07:38:33;;;;;;;1.87;1.77;;;14.40;99.90;;;;;;5042367;28;20198;-84
2023/05/10 07:40:59;;;;;;;2.00;1.80;;;14.50;99.90;;;;;;5041843;28;20174;-83
2023/05/10 07:43:24;;;;;;;2.07;1.80;;;14.40;99.90;;;;;;5044847;28;20184;-83
2023/05/10 07:45:50;;;;;;;2.30;1.70;;;14.50;99.90;;;;;;5044766;28;20174;-84
2023/05/10 07:48:16;;;;;;;2.23;1.70;;;14.60;99.90;;;;;;5043026;28;20214;-85
2023/05/10 07:50:41;;;;;;;1.93;1.73;;;14.60;99.90;;;;;;5044852;28;20190;-84
2023/05/10 07:53:07;;;;;;;1.60;1.50;;;14.70;99.90;;;;;;5043013;28;20210;-84
2023/05/10 07:55:33;;;;;;;1.93;1.70;;;14.70;99.90;;;;;;5042470;28;20201;-84
2023/05/10 07:58:00;;;;;;;1.60;1.50;;;14.70;99.90;;;;;;5043119;28;20195;-82
2023/05/10 08:00:26;;;;;;;2.10;1.70;;;14.70;99.90;;;;;;5045227;28;20166;-83
2023/05/10 08:02:52;;;;;;;1.57;1.37;;;14.70;99.90;;;;;;5045869;28;20182;-81
2023/05/10 08:05:18;;;;;;;1.93;1.50;;;14.70;99.90;;;;;;5045917;28;20201;-82
2023/05/10 08:07:43;;;;;;;1.40;1.30;;;14.70;99.90;;;;;;5048377;28;20190;-82
2023/05/10 08:10:10;;;;;;;1.50;1.40;;;14.70;99.90;;;;;;5047736;28;20189;-83
2023/05/10 08:12:36;;;;;;;1.50;1.37;;;14.80;99.90;;;;;;5048273;28;20206;-81
2023/05/10 08:15:03;;;;;;;1.57;1.47;;;14.80;99.90;;;;;;5048112;28;20258;-79
2023/05/10 08:17:28;;;;;;;1.60;1.50;;;14.70;99.90;;;;;;5048958;28;20205;-81
2023/05/10 08:19:54;;;;;;;1.67;1.40;;;14.70;99.90;;;;;;5045315;28;20250;-82
2023/05/10 08:22:19;;;;;;;1.97;1.50;;;14.70;99.90;;;;;;5047333;28;20170;-83
2023/05/10 08:24:45;;;;;;;1.90;1.70;;;14.90;99.90;;;;;;5046194;28;20180;-82
2023/05/10 08:27:10;;;;;;;1.77;1.30;;;15.00;99.90;;;;;;5040841;28;20199;-81
2023/05/10 08:29:37;;;;;;;1.80;1.30;;;15.00;99.90;;;;;;5042536;28;20178;-79
2023/05/10 08:32:03;;;;;;;1.20;1.10;;;15.10;99.90;;;;;;5040596;28;20202;-81
2023/05/10 08:34:30;;;;;;;1.40;1.30;;;15.20;99.90;;;;;;5042448;28;20244;-81
2023/05/10 08:36:56;;;;;;;1.27;1.17;;;15.30;1.00;;;;;;5040017;28;20763;-81
2023/05/10 08:39:23;;;;;;;2.50;1.27;;;15.50;1.00;;;;;;5040245;28;20210;-83
2023/05/10 08:41:50;;;;;;;1.37;1.27;;;15.70;1.00;;;;;;5042236;28;20296;-81
2023/05/10 08:44:18;;;;;;;1.50;1.40;;;15.70;1.00;;;;;;5053425;28;20553;-84
2023/05/10 08:46:46;;;;;;;2.80;2.13;;;15.60;99.90;;;;;;5056104;28;20242;-81
2023/05/10 08:49:18;;;;;;;1.50;1.40;;;15.50;1.00;;;;;;5040240;28;20256;-82
2023/05/10 08:51:49;;;;;;;2.37;1.20;;;15.30;1.00;;;;;;5039863;28;20672;-81
2023/05/10 08:54:15;;;;;;;1.50;1.40;;;15.30;1.00;;;;;;5040311;28;20158;-80
2023/05/10 08:56:41;;;;;;;1.50;1.40;;;15.10;55.10;;;;;;5040460;28;20170;-80
2023/05/10 08:59:07;;;;;;;1.50;1.40;;;15.10;1.00;;;;;;5037385;28;20173;-83
2023/05/10 09:01:35;;;;;;;1.37;1.27;;;15.40;99.90;;;;;;5035926;28;20178;-81
2023/05/10 09:04:00;;;;;;;1.37;1.27;;;15.60;99.90;;;;;;5036554;28;20174;-82
2023/05/10 09:06:26;;;;;;;1.50;1.40;;;15.70;99.90;;;;;;5039111;28;20175;-81
2023/05/10 09:08:52;;;;;;;1.30;1.20;;;15.90;1.00;;;;;;5039032;28;20254;-81
2023/05/10 09:11:20;;;;;;;1.30;1.10;;;16.00;99.90;;;;;;5036302;28;20174;-80
2023/05/10 09:13:47;;;;;;;1.30;1.20;;;16.00;99.90;;;;;;5036401;28;20174;-81
2023/05/10 09:16:12;;;;;;;1.10;1.00;;;16.00;1.00;;;;;;5038178;28;20181;-80
2023/05/10 09:18:38;;;;;;;1.60;1.30;;;15.90;1.00;;;;;;5038897;28;20566;-81
2023/05/10 09:21:03;;;;;;;1.40;1.03;;;15.90;99.90;;;;;;5039665;28;20680;-81
2023/05/10 09:23:32;;;;;;;1.00;1.00;;;15.90;53.40;;;;;;5039027;28;20178;-80
2023/05/10 09:26:04;;;;;;;1.77;1.00;;;16.00;1.00;;;;;;5040784;28;20189;-80
2023/05/10 09:28:49;;;;;;;1.03;0.90;;;16.00;1.00;;;;;;5039354;28;20194;-81
2023/05/10 09:31:15;;;;;;;0.90;0.90;;;16.10;1.00;;;;;;5040669;28;20178;-79
2023/05/10 09:33:47;;;;;;;0.90;0.90;;;16.00;1.00;;;;;;5041252;28;20227;-81
2023/05/10 09:36:13;;;;;;;1.87;1.00;;;16.00;1.00;;;;;;5041113;28;20174;-80
2023/05/10 09:38:50;;;;;;;1.73;1.20;;;16.00;99.90;;;;;;5042175;28;20190;-80
2023/05/10 09:41:18;;;;;;;1.20;1.10;;;16.00;1.00;;;;;;5041357;28;20553;-81
2023/05/10 09:43:43;;;;;;;2.00;1.17;;;16.00;1.00;;;;;;5043058;28;20653;-81
2023/05/10 09:46:12;;;;;;;1.20;1.10;;;16.00;1.00;;;;;;5043544;28;20209;-81
2023/05/10 09:48:46;;;;;;;1.27;1.07;;;15.90;99.90;;;;;;5043334;28;20213;-81
2023/05/10 09:51:22;;;;;;;1.30;1.20;;;16.10;99.90;;;;;;5043169;28;20260;-81
2023/05/10 09:53:50;;;;;;;1.07;0.97;;;16.20;80.00;;;;;;5040956;28;20178;-82
2023/05/10 09:56:34;;;;;;;1.93;1.07;;;16.30;99.90;;;;;;5039995;28;20193;-82
2023/05/10 09:59:03;;;;;;;1.27;1.07;;;16.30;1.00;;;;;;5036746;28;20186;-80
2023/05/10 10:01:29;;;;;;;1.27;1.17;;;16.40;1.00;;;;;;5038525;28;20174;-84
2023/05/10 10:03:57;;;;;;;1.40;1.30;;;16.30;1.00;;;;;;5037964;28;20178;-80
2023/05/10 10:06:23;;;;;;;2.23;1.20;;;16.20;1.00;;;;;;5039742;28;20167;-80
2023/05/10 10:08:49;;;;;;;1.30;1.20;;;16.10;99.90;;;;;;5037822;28;20186;-81
2023/05/10 10:11:15;;;;;;;2.60;1.40;;;16.00;99.90;;;;;;5036748;28;20181;-82
2023/05/10 10:13:41;;;;;;;1.60;1.50;;;16.00;1.00;;;;;;5037795;28;20184;-82
2023/05/10 10:16:08;;;;;;;1.77;1.30;;;16.00;99.90;;;;;;5042498;28;20604;-82
2023/05/10 10:18:38;;;;;;;1.23;1.10;;;16.00;99.90;;;;;;5042931;28;20248;-83
2023/05/10 10:21:06;;;;;;;1.20;1.10;;;16.00;99.90;;;;;;5044154;28;20179;-83
2023/05/10 10:23:32;;;;;;;1.13;1.03;;;16.20;99.90;;;;;;5044643;28;20181;-84
2023/05/10 10:25:59;;;;;;;1.43;1.00;;;16.50;99.90;;;;;;5046381;28;20273;-81
2023/05/10 10:28:38;;;;;;;0.97;0.93;;;16.80;1.00;;;;;;5045167;28;20202;-82
2023/05/10 10:31:41;;;;;;;1.10;1.00;;;17.10;99.90;;;;;;5041981;28;20185;-82
2023/05/10 10:34:09;;;;;;;1.20;1.10;;;17.20;83.20;;;;;;5042013;28;20190;-82
2023/05/10 10:36:47;;;;;;;1.00;0.90;;;17.50;99.90;;;;;;5042569;28;20181;-85
2023/05/10 10:39:14;;;;;;;1.13;1.03;;;17.80;99.90;;;;;;5036953;28;20270;-84
2023/05/10 10:41:48;;;;;;;1.10;1.00;;;17.70;1.00;;;;;;5038566;28;20645;-86
2023/05/10 10:44:26;;;;;;;1.00;1.00;;;17.30;1.00;;;;;;5038503;28;20176;-83
2023/05/10 10:47:02;;;;;;;1.10;1.00;;;17.10;1.00;;;;;;5036604;28;20248;-84
2023/05/10 10:49:31;;;;;;;1.10;1.00;;;17.20;1.00;;;;;;5035498;28;20216;-84
2023/05/10 10:52:15;;;;;;;1.20;1.10;;;17.10;1.00;;;;;;5037175;28;20202;-87
2023/05/10 10:54:41;;;;;;;1.00;0.90;;;17.10;52.20;;;;;;5035610;28;20185;-90
2023/05/10 10:57:14;;;;;;;1.23;1.13;;;17.10;99.90;;;;;;5035797;28;20222;-87
2023/05/10 10:59:46;;;;;;;1.40;1.30;;;17.20;1.00;;;;;;5030692;28;20715;-87
2023/05/10 11:02:45;;;;;;;1.40;1.30;;;17.30;99.90;;;;;;5040336;28;20282;-86
2023/05/10 11:05:24;;;;;;;1.50;1.20;;;17.30;1.00;;;;;;5038118;28;20679;-85
2023/05/10 11:07:59;;;;;;;3.60;1.17;;;17.60;1.00;;;;;;5040711;28;20193;-86
2023/05/10 11:10:26;;;;;;;1.47;1.20;;;17.60;1.00;;;;;;5037901;28;20182;-85
2023/05/10 11:13:02;;;;;;;2.07;1.20;;;17.60;1.00;;;;;;5040572;28;20194;-85
2023/05/10 11:15:31;;;;;;;1.20;1.10;;;17.70;1.00;;;;;;5042882;28;20230;-84
2023/05/10 11:17:57;;;;;;;1.40;1.30;;;17.70;99.90;;;;;;5046193;28;20625;-83
2023/05/10 11:20:24;;;;;;;1.37;1.27;;;17.50;99.90;;;;;;5046154;28;20182;-83
2023/05/10 11:22:53;;;;;;;1.20;1.10;;;17.40;1.00;;;;;;5045736;28;20200;-85
2023/05/10 11:25:20;;;;;;;2.17;1.70;;;17.30;1.00;;;;;;5043823;28;20182;-85
2023/05/10 11:27:47;;;;;;;1.70;1.30;;;17.30;1.00;;;;;;5045666;28;20205;-83
2023/05/10 11:30:14;;;;;;;1.50;1.40;;;17.20;99.90;;;;;;5045665;28;20171;-84
2023/05/10 11:32:40;;;;;;;1.90;1.20;;;17.20;1.00;;;;;;5047153;28;20186;-84
2023/05/10 11:35:11;;;;;;;1.20;1.10;;;17.10;1.00;;;;;;5046235;28;20551;-85
2023/05/10 11:37:41;;;;;;;2.90;1.37;;;17.20;1.00;;;;;;5042300;28;20279;-85
2023/05/10 11:40:09;;;;;;;2.30;1.20;;;17.10;99.90;;;;;;5041307;28;20174;-86
2023/05/10 11:42:37;;;;;;;1.47;1.37;;;17.10;1.00;;;;;;5039964;28;20169;-86
2023/05/10 11:45:02;;;;;;;1.43;1.33;;;17.20;99.90;;;;;;5033752;28;20500;-85
2023/05/10 11:47:28;;;;;;;2.20;1.50;;;17.20;99.90;;;;;;5034905;28;20210;-85
2023/05/10 11:49:53;;;;;;;2.23;1.47;;;17.30;99.90;;;;;;5033593;28;20182;-86
2023/05/10 11:52:19;;;;;;;1.93;1.30;;;17.40;1.00;;;;;;5034665;28;20233;-87
2023/05/10 11:54:53;;;;;;;1.53;1.33;;;17.30;59.10;;;;;;5038165;28;20224;-85
2023/05/10 11:57:25;;;;;;;1.70;1.20;;;17.30;99.90;;;;;;5035930;28;20252;-85
2023/05/10 11:59:55;;;;;;;1.50;1.37;;;17.20;1.00;;;;;;5041868;28;20193;-88
2023/05/10 12:02:20;;;;;;;1.40;1.30;;;17.00;1.00;;;;;;5037195;28;20533;-85
2023/05/10 12:04:46;;;;;;;1.80;1.50;;;16.50;1.00;;;;;;5034703;28;20751;-87
2023/05/10 12:07:12;;;;;;;3.10;1.57;;;16.20;99.90;;;;;;5035682;28;20198;-86
2023/05/10 12:10:01;;;;;;;1.60;1.30;;;16.00;1.00;;;;;;5034909;28;20178;-85
2023/05/10 12:12:27;;;;;;;4.47;2.17;;;15.70;1.00;;;;;;5036054;28;20206;-84
2023/05/10 12:14:53;;;;;;;2.60;1.80;;;15.30;99.90;;;;;;5033155;28;20174;-85
2023/05/10 12:17:18;;;;;;;3.17;2.00;;;15.20;99.90;;;;;;5034034;28;20248;-85
2023/05/10 12:19:44;;;;;;;1.67;1.57;;;15.00;99.90;;;;;;5035462;28;20170;-81
2023/05/10 12:22:09;;;;;;;2.17;1.83;;;14.90;99.90;;;;;;5042069;28;20598;-82
2023/05/10 12:24:37;;;;;;;1.57;1.47;;;14.80;99.90;;;;;;5042987;28;20204;-82
2023/05/10 12:27:08;;;;;;;1.70;1.60;;;14.80;99.90;;;;;;5041482;28;20194;-82
2023/05/10 12:29:34;;;;;;;2.37;1.60;;;14.80;99.90;;;;;;5041829;28;20178;-82
2023/05/10 12:31:59;;;;;;;1.87;1.70;;;14.80;99.90;;;;;;5040463;28;20301;-82
2023/05/10 12:34:31;;;;;;;2.00;1.40;;;14.80;99.90;;;;;;5039698;28;20181;-83
2023/05/10 12:36:56;;;;;;;1.83;1.57;;;14.80;99.90;;;;;;5037922;28;20248;-82
2023/05/10 12:39:23;;;;;;;2.23;1.53;;;15.00;99.90;;;;;;5041974;28;20179;-83
2023/05/10 12:41:48;;;;;;;2.30;1.63;;;15.10;99.90;;;;;;5040148;28;20182;-82
2023/05/10 12:44:14;;;;;;;2.43;1.80;;;15.20;99.90;;;;;;5039296;28;20179;-82
2023/05/10 12:46:39;;;;;;;2.20;2.00;;;15.30;99.90;;;;;;5041674;28;20206;-84
2023/05/10 12:49:05;;;;;;;2.33;2.00;;;15.40;99.90;;;;;;5041076;28;20213;-81
2023/05/10 12:51:31;;;;;;;2.60;2.40;;;15.40;99.90;;;;;;5037145;28;20197;-82
2023/05/10 12:53:56;;;;;;;3.27;2.00;;;15.50;99.90;;;;;;5039669;28;20185;-83